Time;durP1;ratioP1;P1;durP2;ratioP2;P2;SDS_P1;SDS_P2;PMS_P1;PMS_P2;Temp;Humidity;BMP_temperature;BMP_pressure;BME280_temperature;BME280_humidity;BME280_pressure;Samples;Min_cycle;Max_cycle;Signal;HPM_P1;HPM_P2
2022/05/20 00:02:14;;;;;;;3.90;3.60;;;22.40;71.50;;;;;;5012873;28;20633;-71
2022/05/20 00:04:40;;;;;;;3.70;3.40;;;22.40;71.40;;;;;;4979346;28;20189;-71
2022/05/20 00:07:06;;;;;;;4.10;3.70;;;22.50;71.60;;;;;;4994451;28;20288;-71
2022/05/20 00:09:32;;;;;;;3.97;3.58;;;22.50;71.50;;;;;;5011187;28;20181;-71
2022/05/20 00:11:58;;;;;;;3.72;3.42;;;22.40;71.50;;;;;;4995923;28;20216;-71
2022/05/20 00:14:24;;;;;;;3.90;3.60;;;22.40;71.40;;;;;;4996204;28;20196;-71
2022/05/20 00:16:50;;;;;;;3.80;3.38;;;22.40;71.50;;;;;;4992782;28;20209;-71
2022/05/20 00:19:16;;;;;;;3.85;3.55;;;22.40;71.50;;;;;;4993101;28;20189;-71
2022/05/20 00:21:42;;;;;;;4.22;3.80;;;22.40;71.40;;;;;;4993894;28;20200;-71
2022/05/20 00:24:08;;;;;;;4.30;3.75;;;22.40;71.40;;;;;;4993510;28;20198;-71
2022/05/20 00:26:34;;;;;;;4.00;3.70;;;22.40;71.40;;;;;;4961226;28;20241;-71
2022/05/20 00:29:00;;;;;;;4.20;3.55;;;22.40;71.40;;;;;;4993453;28;20288;-71
2022/05/20 00:31:27;;;;;;;4.20;3.88;;;22.40;71.50;;;;;;4977985;28;20228;-71
2022/05/20 00:33:53;;;;;;;5.57;3.80;;;22.40;71.40;;;;;;4993178;28;20173;-71
2022/05/20 00:36:19;;;;;;;3.90;3.60;;;22.40;71.60;;;;;;4960592;28;20205;-71
2022/05/20 00:38:46;;;;;;;3.90;3.60;;;22.40;71.40;;;;;;4976838;28;20194;-71
2022/05/20 00:41:12;;;;;;;4.18;3.78;;;22.40;71.50;;;;;;4976853;28;20190;-71
2022/05/20 00:43:44;;;;;;;4.10;3.80;;;22.40;71.50;;;;;;4960222;28;20235;-71
2022/05/20 00:46:23;;;;;;;3.97;3.60;;;22.40;71.40;;;;;;4976030;28;20701;-71
2022/05/20 00:49:04;;;;;;;3.78;3.47;;;22.40;71.40;;;;;;4992613;28;20189;-71
2022/05/20 00:51:41;;;;;;;4.13;3.33;;;22.40;71.40;;;;;;4961233;28;20228;-71
2022/05/20 00:54:21;;;;;;;3.75;3.45;;;22.40;71.40;;;;;;4963512;28;20189;-71
2022/05/20 00:56:49;;;;;;;3.72;3.22;;;22.40;71.40;;;;;;4963967;28;20296;-71
2022/05/20 00:59:23;;;;;;;4.03;3.60;;;22.40;71.40;;;;;;4979933;28;20194;-71
2022/05/20 01:01:53;;;;;;;4.10;3.78;;;22.40;71.40;;;;;;4979134;28;20169;-71
2022/05/20 01:04:22;;;;;;;3.47;3.17;;;22.40;71.40;;;;;;4979420;28;20196;-71
2022/05/20 01:06:48;;;;;;;4.13;3.72;;;22.40;71.40;;;;;;4979838;28;20245;-71
2022/05/20 01:09:14;;;;;;;4.47;3.80;;;22.40;71.30;;;;;;4980211;28;20170;-71
2022/05/20 01:11:40;;;;;;;4.70;3.53;;;22.40;71.30;;;;;;4963212;28;20229;-71
2022/05/20 01:14:08;;;;;;;3.28;2.97;;;22.40;71.30;;;;;;4995854;28;20197;-71
2022/05/20 01:16:35;;;;;;;3.80;3.50;;;22.40;71.30;;;;;;4995933;28;20217;-71
2022/05/20 01:19:01;;;;;;;3.58;3.33;;;22.40;71.30;;;;;;4963570;28;20182;-71
2022/05/20 01:21:27;;;;;;;4.65;3.50;;;22.40;71.30;;;;;;4978724;28;20182;-71
2022/05/20 01:24:03;;;;;;;3.90;3.47;;;22.40;71.30;;;;;;4978786;28;20213;-71
2022/05/20 01:26:29;;;;;;;3.75;3.35;;;22.40;71.20;;;;;;4979095;28;20208;-71
2022/05/20 01:28:55;;;;;;;3.85;3.40;;;22.40;71.20;;;;;;4994624;28;20189;-71
2022/05/20 01:31:21;;;;;;;3.20;2.90;;;22.40;71.10;;;;;;4978130;28;20209;-71
2022/05/20 01:33:51;;;;;;;3.70;3.40;;;22.40;71.10;;;;;;4994693;28;20196;-71
2022/05/20 01:36:24;;;;;;;3.83;3.50;;;22.40;71.10;;;;;;4978015;28;20677;-71
2022/05/20 01:38:52;;;;;;;3.85;3.30;;;22.40;71.10;;;;;;4978054;28;20197;-71
2022/05/20 01:42:01;;;;;;;3.47;3.17;;;22.40;71.10;;;;;;4962438;28;20698;-71
2022/05/20 01:45:03;;;;;;;3.67;3.38;;;22.40;71.20;;;;;;4961525;28;20217;-71
2022/05/20 01:48:05;;;;;;;3.92;3.63;;;22.30;71.00;;;;;;4963832;28;20201;-71
2022/05/20 01:50:41;;;;;;;3.42;3.13;;;22.40;71.10;;;;;;4994502;28;20327;-71
2022/05/20 01:53:25;;;;;;;3.83;3.35;;;22.40;71.10;;;;;;4962808;28;20275;-71
2022/05/20 01:56:12;;;;;;;4.55;3.70;;;22.30;71.10;;;;;;4978782;28;20348;-71
2022/05/20 01:59:08;;;;;;;3.33;3.10;;;22.40;71.10;;;;;;4995852;28;20185;-71
2022/05/20 02:01:40;;;;;;;3.55;3.25;;;22.40;71.10;;;;;;4978926;28;20228;-71
2022/05/20 02:04:23;;;;;;;3.30;3.10;;;22.40;71.10;;;;;;4962791;28;20204;-71
2022/05/20 02:07:06;;;;;;;3.33;3.03;;;22.40;71.20;;;;;;4994457;28;20251;-71
2022/05/20 02:09:44;;;;;;;3.53;3.25;;;22.30;71.10;;;;;;4962169;28;20186;-71
2022/05/20 02:12:17;;;;;;;3.70;3.40;;;22.40;71.10;;;;;;4994544;28;20268;-71
2022/05/20 02:15:03;;;;;;;3.58;3.28;;;22.40;71.20;;;;;;4978072;28;20178;-71
2022/05/20 02:17:37;;;;;;;3.50;3.20;;;22.40;71.10;;;;;;4978376;28;20174;-71
2022/05/20 02:20:17;;;;;;;3.85;3.53;;;22.40;71.10;;;;;;4993940;28;20194;-71
2022/05/20 02:23:00;;;;;;;3.08;2.85;;;22.30;71.00;;;;;;4994508;28;20190;-71
2022/05/20 02:25:35;;;;;;;3.75;3.40;;;22.30;71.00;;;;;;4995720;28;20270;-71
2022/05/20 02:28:16;;;;;;;3.58;3.28;;;22.30;71.00;;;;;;4979236;28;20251;-71
2022/05/20 02:30:44;;;;;;;3.30;3.00;;;22.40;71.00;;;;;;4995093;28;20265;-71
2022/05/20 02:33:21;;;;;;;3.95;3.65;;;22.30;70.90;;;;;;4995111;28;20204;-71
2022/05/20 02:35:47;;;;;;;3.33;3.13;;;22.30;70.90;;;;;;4995757;28;20212;-71
2022/05/20 02:38:17;;;;;;;3.78;3.50;;;22.40;71.00;;;;;;4963534;28;20182;-71
2022/05/20 02:40:48;;;;;;;3.58;3.25;;;22.30;71.00;;;;;;4963369;28;20190;-71
2022/05/20 02:43:14;;;;;;;3.30;3.00;;;22.30;71.00;;;;;;4979904;28;20192;-71
2022/05/20 02:45:43;;;;;;;3.50;3.20;;;22.30;70.90;;;;;;4995093;28;20230;-71
2022/05/20 02:48:11;;;;;;;3.60;3.30;;;22.30;71.00;;;;;;4993783;28;20196;-71
2022/05/20 02:50:37;;;;;;;3.20;2.92;;;22.30;70.90;;;;;;4976431;28;20354;-71
2022/05/20 02:53:03;;;;;;;3.40;3.10;;;22.30;70.90;;;;;;4993589;28;20217;-71
2022/05/20 02:55:29;;;;;;;2.97;2.78;;;22.30;70.90;;;;;;4961332;28;20292;-71
2022/05/20 02:57:55;;;;;;;3.63;3.20;;;22.30;70.90;;;;;;4994698;28;20181;-71
2022/05/20 03:05:51;;;;;;;3.90;3.60;;;22.30;70.80;;;;;;4996854;28;20227;-71
2022/05/20 03:08:18;;;;;;;3.72;3.42;;;22.30;70.90;;;;;;4998198;28;20185;-71
2022/05/20 03:10:44;;;;;;;3.78;3.47;;;22.30;70.90;;;;;;4997978;28;20212;-71
2022/05/20 03:13:10;;;;;;;3.33;3.03;;;22.30;70.80;;;;;;5013981;28;20216;-71
2022/05/20 03:15:38;;;;;;;3.78;3.03;;;22.30;70.80;;;;;;5013847;28;20248;-71
2022/05/20 03:18:04;;;;;;;3.20;3.00;;;22.30;70.90;;;;;;4996898;28;20197;-71
2022/05/20 03:20:30;;;;;;;3.00;2.80;;;22.30;70.80;;;;;;5013152;28;20576;-71
2022/05/20 03:22:56;;;;;;;3.83;3.47;;;22.30;70.80;;;;;;4997049;28;20300;-71
2022/05/20 03:25:21;;;;;;;3.38;3.08;;;22.30;70.80;;;;;;4997827;28;20251;-71
2022/05/20 03:27:48;;;;;;;4.07;3.22;;;22.30;70.80;;;;;;4996670;28;20181;-71
2022/05/20 03:30:15;;;;;;;3.92;2.88;;;22.30;70.80;;;;;;5013776;28;20192;-71
2022/05/20 03:32:40;;;;;;;3.22;3.03;;;22.30;70.70;;;;;;4981647;28;20188;-71
2022/05/20 03:35:08;;;;;;;3.42;3.22;;;22.30;70.70;;;;;;4997074;28;20218;-71
2022/05/20 03:37:34;;;;;;;3.17;2.97;;;22.30;70.80;;;;;;4980189;28;20234;-71
2022/05/20 03:39:59;;;;;;;3.28;3.08;;;22.30;71.50;;;;;;5013310;28;20181;-71
2022/05/20 03:42:26;;;;;;;3.28;3.08;;;22.30;70.80;;;;;;5013821;28;20185;-71
2022/05/20 03:44:52;;;;;;;3.42;3.13;;;22.30;71.50;;;;;;4997091;28;20173;-71
2022/05/20 03:47:19;;;;;;;3.33;3.10;;;22.30;70.80;;;;;;4981017;28;20209;-71
2022/05/20 03:49:46;;;;;;;3.30;2.92;;;22.30;70.80;;;;;;4997732;28;20248;-71
2022/05/20 03:52:14;;;;;;;3.60;3.30;;;22.30;70.80;;;;;;4981490;28;20324;-71
2022/05/20 03:54:40;;;;;;;3.20;3.00;;;22.30;70.80;;;;;;4998076;28;20185;-71
2022/05/20 03:57:07;;;;;;;3.20;3.00;;;22.30;70.80;;;;;;4980910;28;20209;-71
2022/05/20 03:59:36;;;;;;;3.20;2.90;;;22.30;70.70;;;;;;4980095;28;20198;-71
2022/05/20 04:02:06;;;;;;;3.67;3.38;;;22.30;70.70;;;;;;5012846;28;20189;-71
2022/05/20 04:04:41;;;;;;;3.47;3.03;;;22.30;70.80;;;;;;5012852;28;20204;-71
2022/05/20 04:07:18;;;;;;;3.33;3.03;;;22.30;70.80;;;;;;5012627;28;20218;-71
2022/05/20 04:09:45;;;;;;;3.38;3.10;;;22.30;70.80;;;;;;4996557;28;20227;-71
2022/05/20 04:12:42;;;;;;;3.30;3.00;;;22.30;70.70;;;;;;4993809;28;20255;-71
2022/05/20 04:15:15;;;;;;;3.03;2.83;;;22.30;70.70;;;;;;4978245;28;20258;-71
2022/05/20 04:17:41;;;;;;;3.03;2.80;;;22.30;70.70;;;;;;4995697;28;20657;-71
2022/05/20 04:20:08;;;;;;;4.28;3.85;;;22.30;70.80;;;;;;4981276;28;20193;-71
2022/05/20 04:22:38;;;;;;;4.18;3.78;;;22.30;70.70;;;;;;4981423;28;20799;-71
2022/05/20 04:25:05;;;;;;;5.80;5.03;;;22.30;70.70;;;;;;4979452;28;20188;-72
2022/05/20 04:27:31;;;;;;;5.72;5.07;;;22.30;70.70;;;;;;4995668;28;20251;-71
2022/05/20 04:29:57;;;;;;;6.95;5.55;;;22.30;70.70;;;;;;4996823;28;20192;-71
2022/05/20 04:32:23;;;;;;;5.63;5.13;;;22.30;71.50;;;;;;4993263;28;20189;-71
2022/05/20 04:34:50;;;;;;;7.00;5.28;;;22.20;70.60;;;;;;4977614;28;20217;-72
2022/05/20 04:37:15;;;;;;;4.55;4.13;;;22.20;70.60;;;;;;4960935;28;20218;-71
2022/05/20 04:39:42;;;;;;;5.68;4.60;;;22.30;70.80;;;;;;4961407;28;20276;-72
2022/05/20 04:47:41;;;;;;;4.00;3.60;;;22.30;70.70;;;;;;4977904;28;20201;-71
2022/05/20 04:50:08;;;;;;;4.78;4.30;;;22.30;70.60;;;;;;4975420;28;20177;-71
2022/05/20 04:52:34;;;;;;;5.93;4.47;;;22.30;70.70;;;;;;4974441;28;20194;-71
2022/05/20 04:55:01;;;;;;;4.80;4.40;;;22.30;70.70;;;;;;4978945;28;20244;-71
2022/05/20 04:57:44;;;;;;;5.40;4.90;;;22.30;70.60;;;;;;4980225;28;20212;-71
2022/05/20 05:00:27;;;;;;;5.25;4.72;;;22.30;70.60;;;;;;4965021;28;20186;-71
2022/05/20 05:02:54;;;;;;;6.32;5.28;;;22.30;70.70;;;;;;4976142;28;20186;-71
2022/05/20 05:05:24;;;;;;;5.78;5.18;;;22.30;70.70;;;;;;4969566;28;20189;-72
2022/05/20 05:07:52;;;;;;;5.70;5.20;;;22.30;70.60;;;;;;4979044;28;20280;-71
2022/05/20 05:10:25;;;;;;;4.70;4.30;;;22.30;70.60;;;;;;4994837;28;20177;-72
2022/05/20 05:12:51;;;;;;;4.90;4.40;;;22.30;70.60;;;;;;4978918;28;20193;-71
2022/05/20 05:15:19;;;;;;;5.40;4.38;;;22.30;70.60;;;;;;4994683;28;20189;-71
2022/05/20 05:20:32;;;;;;;4.82;4.32;;;22.30;70.70;;;;;;4994323;28;20192;-71
2022/05/20 05:22:58;;;;;;;4.55;4.15;;;22.30;70.80;;;;;;4978524;28;20193;-72
2022/05/20 05:25:30;;;;;;;5.00;4.50;;;22.30;70.70;;;;;;4994926;28;20213;-71
2022/05/20 05:27:55;;;;;;;5.38;4.88;;;22.30;70.80;;;;;;5011561;28;20240;-71
2022/05/20 05:30:22;;;;;;;5.50;5.00;;;22.30;70.90;;;;;;4994874;28;20212;-71
2022/05/20 05:32:48;;;;;;;4.85;4.45;;;22.30;70.80;;;;;;4976813;28;20187;-71
2022/05/20 05:35:23;;;;;;;5.85;4.55;;;22.30;70.90;;;;;;4977130;28;20184;-71
2022/05/20 05:37:50;;;;;;;4.75;4.32;;;22.30;71.00;;;;;;4979705;28;20187;-71
2022/05/20 05:40:21;;;;;;;4.63;4.22;;;22.30;70.90;;;;;;4980531;28;20188;-71
2022/05/20 05:42:48;;;;;;;4.82;4.25;;;22.40;71.20;;;;;;4996808;28;20556;-72
2022/05/20 05:45:20;;;;;;;4.20;3.80;;;22.30;71.10;;;;;;4996425;28;20192;-71
2022/05/20 05:47:56;;;;;;;4.45;4.05;;;22.30;71.00;;;;;;5013445;28;20169;-72
2022/05/20 05:50:22;;;;;;;4.30;3.58;;;22.30;71.10;;;;;;4997187;28;20224;-72
2022/05/20 05:53:13;;;;;;;4.38;3.97;;;22.40;71.40;;;;;;5013218;28;20179;-72
2022/05/20 05:55:41;;;;;;;4.13;3.75;;;22.40;71.30;;;;;;4995995;28;20201;-71
2022/05/20 05:58:08;;;;;;;4.35;3.95;;;22.40;71.80;;;;;;4996437;28;20183;-71
2022/05/20 06:00:35;;;;;;;4.07;3.50;;;22.40;71.80;;;;;;5009098;28;20216;-71
2022/05/20 06:03:01;;;;;;;4.05;3.65;;;22.40;71.90;;;;;;4994404;28;20211;-70
2022/05/20 06:05:27;;;;;;;4.30;3.90;;;22.40;71.70;;;;;;4994395;28;20212;-71
2022/05/20 06:07:52;;;;;;;4.40;4.00;;;22.40;71.70;;;;;;4994251;28;20184;-71
2022/05/20 06:10:20;;;;;;;4.07;3.72;;;22.40;71.50;;;;;;4994136;28;20193;-72
2022/05/20 06:12:46;;;;;;;4.40;3.92;;;22.40;71.60;;;;;;4993747;28;20646;-71
2022/05/20 06:15:22;;;;;;;5.32;3.58;;;22.40;71.70;;;;;;4995201;28;20165;-72
2022/05/20 06:17:52;;;;;;;4.00;3.60;;;22.40;72.10;;;;;;4995606;28;20184;-71
2022/05/20 06:20:21;;;;;;;4.57;3.78;;;22.40;72.20;;;;;;4994009;28;20268;-71
2022/05/20 06:22:47;;;;;;;4.10;3.70;;;22.40;72.20;;;;;;4992195;28;20185;-71
2022/05/20 06:25:14;;;;;;;3.40;3.10;;;22.40;72.40;;;;;;4977940;28;20189;-71
2022/05/20 06:27:40;;;;;;;4.07;3.67;;;22.40;72.00;;;;;;4994176;28;20184;-72
2022/05/20 06:30:10;;;;;;;3.63;3.20;;;22.40;72.00;;;;;;4993811;28;20181;-71
2022/05/20 06:32:36;;;;;;;4.60;3.60;;;22.40;72.00;;;;;;4977239;28;20279;-71
2022/05/20 06:40:49;;;;;;;3.85;3.45;;;22.40;72.40;;;;;;5010160;28;20208;-71
2022/05/20 06:43:18;;;;;;;3.35;3.05;;;22.40;72.20;;;;;;4993782;28;20180;-71
2022/05/20 06:45:48;;;;;;;4.65;3.58;;;22.40;72.40;;;;;;4977354;28;20215;-71
2022/05/20 06:48:14;;;;;;;3.33;2.97;;;22.50;72.20;;;;;;4994118;28;20637;-72
2022/05/20 06:50:41;;;;;;;3.38;3.10;;;22.40;72.10;;;;;;4991161;28;20220;-71
2022/05/20 06:53:07;;;;;;;4.82;3.45;;;22.50;72.30;;;;;;4976709;28;20220;-70
2022/05/20 06:55:33;;;;;;;4.05;3.20;;;22.40;72.30;;;;;;5002705;28;20201;-71
2022/05/20 06:58:00;;;;;;;3.45;3.15;;;22.50;72.50;;;;;;5010117;28;20192;-71
2022/05/20 07:00:27;;;;;;;3.30;3.08;;;22.50;72.20;;;;;;4994363;28;20279;-71
2022/05/20 07:02:52;;;;;;;3.35;3.05;;;22.50;72.50;;;;;;5009699;28;20192;-71
2022/05/20 07:05:18;;;;;;;3.60;3.30;;;22.50;72.60;;;;;;4993856;28;20196;-71
2022/05/20 07:07:44;;;;;;;3.53;3.22;;;22.50;72.30;;;;;;4993904;28;20188;-71
2022/05/20 07:10:13;;;;;;;3.63;2.95;;;22.40;72.60;;;;;;4993526;28;20187;-71
2022/05/20 07:12:39;;;;;;;3.65;2.97;;;22.50;72.60;;;;;;4993996;28;20196;-71
2022/05/20 07:15:07;;;;;;;3.33;3.10;;;22.40;72.80;;;;;;4994792;28;20181;-72
2022/05/20 07:17:33;;;;;;;5.13;3.15;;;22.50;72.80;;;;;;4994177;28;20181;-70
2022/05/20 07:19:59;;;;;;;3.38;3.08;;;22.50;72.60;;;;;;4995261;28;20192;-70
2022/05/20 07:22:25;;;;;;;3.40;3.10;;;22.50;72.60;;;;;;4994411;28;20192;-71
2022/05/20 07:24:51;;;;;;;3.20;2.90;;;22.50;72.60;;;;;;4994979;28;20188;-71
2022/05/20 07:27:18;;;;;;;3.00;2.80;;;22.50;72.60;;;;;;4993946;28;20209;-71
2022/05/20 07:29:44;;;;;;;3.65;3.20;;;22.50;72.60;;;;;;4993928;28;20196;-72
2022/05/20 07:32:10;;;;;;;3.53;3.00;;;22.50;72.70;;;;;;4993016;28;20224;-70
2022/05/20 07:34:36;;;;;;;3.00;2.70;;;22.50;72.80;;;;;;4977828;28;20236;-71
2022/05/20 07:37:03;;;;;;;3.45;3.15;;;22.50;72.60;;;;;;4993798;28;20212;-71
2022/05/20 07:39:29;;;;;;;3.22;2.95;;;22.50;72.80;;;;;;4992885;28;20197;-71
2022/05/20 07:41:55;;;;;;;3.03;2.75;;;22.50;72.60;;;;;;4993043;28;20246;-71
2022/05/20 07:44:21;;;;;;;2.78;2.55;;;22.60;72.50;;;;;;4993883;28;20176;-71
2022/05/20 07:46:47;;;;;;;3.33;3.03;;;22.60;72.50;;;;;;5009376;28;20288;-71
2022/05/20 07:49:13;;;;;;;4.43;3.20;;;22.60;72.30;;;;;;5009485;28;20183;-71
2022/05/20 07:51:45;;;;;;;3.60;3.30;;;22.70;72.50;;;;;;5009820;28;20224;-70
2022/05/20 07:54:23;;;;;;;3.25;2.90;;;22.60;72.40;;;;;;4976595;28;20267;-71
2022/05/20 07:57:01;;;;;;;3.30;2.88;;;22.60;72.20;;;;;;4976720;28;20208;-71
2022/05/20 07:59:54;;;;;;;3.38;3.08;;;22.70;72.50;;;;;;5008849;28;20180;-71
2022/05/20 08:02:27;;;;;;;3.63;3.08;;;22.60;72.40;;;;;;5007477;28;20228;-70
2022/05/20 08:04:57;;;;;;;3.42;2.92;;;22.60;72.50;;;;;;4992420;28;20189;-71
2022/05/20 08:07:37;;;;;;;3.05;2.75;;;22.70;72.50;;;;;;4992387;28;20237;-71
2022/05/20 08:10:09;;;;;;;3.45;3.13;;;22.70;72.50;;;;;;4992012;28;20180;-71
2022/05/20 08:12:34;;;;;;;3.17;2.88;;;22.70;72.40;;;;;;5008249;28;20268;-71
2022/05/20 08:15:00;;;;;;;3.40;3.10;;;22.70;72.40;;;;;;4991926;28;20776;-70
2022/05/20 08:17:26;;;;;;;2.92;2.70;;;22.70;72.50;;;;;;4992037;28;20180;-72
2022/05/20 08:19:54;;;;;;;2.88;2.67;;;22.70;72.40;;;;;;4992531;28;20187;-71
2022/05/20 08:22:22;;;;;;;3.22;2.92;;;22.70;72.60;;;;;;4976113;28;20290;-71
2022/05/20 08:24:53;;;;;;;2.92;2.60;;;22.70;72.60;;;;;;5008285;28;20199;-71
2022/05/20 08:27:25;;;;;;;3.00;2.80;;;22.70;72.50;;;;;;4992238;28;20212;-71
2022/05/20 08:29:51;;;;;;;3.33;2.97;;;22.70;72.60;;;;;;5008805;28;20189;-71
2022/05/20 08:32:18;;;;;;;2.75;2.55;;;22.70;73.00;;;;;;4992687;28;20212;-71
2022/05/20 08:34:44;;;;;;;3.47;3.05;;;22.70;72.90;;;;;;4992469;28;20181;-70
2022/05/20 08:37:13;;;;;;;2.92;2.72;;;22.70;72.90;;;;;;4992174;28;20231;-71
2022/05/20 08:39:39;;;;;;;4.20;2.78;;;22.80;73.00;;;;;;4992185;28;20216;-71
2022/05/20 08:42:14;;;;;;;3.53;3.00;;;22.70;72.80;;;;;;5008080;28;20231;-71
2022/05/20 08:44:42;;;;;;;3.08;2.70;;;22.80;72.70;;;;;;4991824;28;20212;-71
2022/05/20 08:47:33;;;;;;;3.20;2.90;;;22.80;72.70;;;;;;4975902;28;20213;-71
2022/05/20 08:50:04;;;;;;;3.00;2.80;;;22.70;72.60;;;;;;4992966;28;20219;-71
2022/05/20 08:52:31;;;;;;;3.03;2.83;;;22.80;72.70;;;;;;4975976;28;20205;-71
2022/05/20 08:54:57;;;;;;;3.10;2.80;;;22.80;72.60;;;;;;4975700;28;20192;-71
2022/05/20 08:57:32;;;;;;;2.90;2.67;;;22.80;72.70;;;;;;4991584;28;20212;-71
2022/05/20 08:59:58;;;;;;;3.60;2.92;;;22.80;73.00;;;;;;4992159;28;20184;-71
2022/05/20 09:02:24;;;;;;;2.90;2.70;;;22.80;72.60;;;;;;4991896;28;20188;-71
2022/05/20 09:04:50;;;;;;;3.10;2.80;;;22.80;72.50;;;;;;4992208;28;20193;-71
2022/05/20 09:07:20;;;;;;;3.00;2.80;;;22.80;72.80;;;;;;4992088;28;20205;-71
2022/05/20 09:09:59;;;;;;;2.92;2.67;;;22.80;72.60;;;;;;4993166;28;20192;-71
2022/05/20 09:12:36;;;;;;;3.15;2.85;;;22.90;72.70;;;;;;4977048;28;20216;-70
2022/05/20 09:18:13;;;;;;;3.17;2.88;;;22.80;72.60;;;;;;4996852;28;20187;-71
2022/05/20 09:20:52;;;;;;;2.70;2.50;;;22.80;72.70;;;;;;5011850;28;20533;-70
2022/05/20 09:23:20;;;;;;;3.00;2.80;;;22.80;72.90;;;;;;4978813;28;20184;-71
2022/05/20 09:26:09;;;;;;;3.40;2.60;;;22.90;73.00;;;;;;4995455;28;20291;-71
2022/05/20 09:28:51;;;;;;;3.00;2.70;;;22.90;73.00;;;;;;4978697;28;20192;-70
2022/05/20 09:31:27;;;;;;;2.90;2.70;;;22.90;73.00;;;;;;4998144;28;20212;-71
2022/05/20 09:34:14;;;;;;;4.25;2.63;;;22.90;73.00;;;;;;4979973;28;20185;-71
2022/05/20 09:37:02;;;;;;;2.97;2.78;;;22.90;73.10;;;;;;4996711;28;20215;-71
2022/05/20 09:39:38;;;;;;;2.88;2.67;;;22.90;73.10;;;;;;4995155;28;20201;-71
2022/05/20 09:42:24;;;;;;;3.67;3.33;;;22.90;73.30;;;;;;5011398;28;20188;-71
2022/05/20 09:45:12;;;;;;;3.17;2.97;;;22.90;73.50;;;;;;4989642;28;20264;-70
2022/05/20 09:47:56;;;;;;;3.15;2.85;;;22.90;73.60;;;;;;5012011;28;20196;-71
2022/05/20 09:50:33;;;;;;;3.17;2.88;;;22.80;73.30;;;;;;5011623;28;20222;-71
2022/05/20 09:53:20;;;;;;;4.13;3.03;;;22.90;73.60;;;;;;4996001;28;20177;-71
2022/05/20 09:55:46;;;;;;;3.30;3.03;;;22.90;73.50;;;;;;4996401;28;20209;-72
2022/05/20 09:58:38;;;;;;;3.05;2.85;;;22.90;73.50;;;;;;4979875;28;20195;-72
2022/05/20 10:01:12;;;;;;;3.00;2.70;;;22.90;73.80;;;;;;4994543;28;20212;-72
2022/05/20 10:03:45;;;;;;;4.07;2.60;;;22.90;73.70;;;;;;4995885;28;20177;-72
2022/05/20 10:06:21;;;;;;;3.13;2.92;;;22.90;73.60;;;;;;5012080;28;20367;-72
2022/05/20 10:09:22;;;;;;;3.15;2.90;;;22.90;73.60;;;;;;4996686;28;20188;-72
2022/05/20 10:12:17;;;;;;;3.28;2.97;;;22.90;73.50;;;;;;4995352;28;20217;-71
2022/05/20 10:15:18;;;;;;;3.30;3.00;;;22.90;73.70;;;;;;4995216;28;20189;-72
2022/05/20 10:17:59;;;;;;;3.92;2.75;;;22.90;73.70;;;;;;4995898;28;20169;-71
2022/05/20 10:20:44;;;;;;;3.33;3.10;;;22.90;73.50;;;;;;4996488;28;20192;-71
2022/05/20 10:23:53;;;;;;;3.17;2.83;;;22.90;73.40;;;;;;4974448;28;20192;-71
2022/05/20 10:26:43;;;;;;;3.20;2.90;;;22.90;73.00;;;;;;4992697;28;20224;-72
2022/05/20 10:32:39;;;;;;;4.32;3.25;;;22.90;73.50;;;;;;5010668;28;20220;-71
2022/05/20 10:35:21;;;;;;;3.88;2.75;;;22.90;73.70;;;;;;4995128;28;20252;-71
2022/05/20 10:38:23;;;;;;;3.17;2.97;;;22.90;73.40;;;;;;5010534;28;20187;-72
2022/05/20 10:41:04;;;;;;;3.03;2.83;;;22.90;73.60;;;;;;5010572;28;20199;-71
2022/05/20 10:49:43;;;;;;;6.72;3.35;;;22.90;73.10;;;;;;5007571;28;20178;-72
2022/05/20 10:52:22;;;;;;;3.20;2.90;;;22.90;73.70;;;;;;4992430;28;20213;-72
2022/05/20 10:55:10;;;;;;;3.25;2.95;;;22.90;74.60;;;;;;4994373;28;20220;-71
2022/05/20 10:58:22;;;;;;;3.30;3.00;;;22.90;73.60;;;;;;4978271;28;20280;-70
2022/05/20 11:00:50;;;;;;;4.10;3.03;;;22.90;73.40;;;;;;4988576;28;20260;-71
2022/05/20 11:03:58;;;;;;;3.33;3.03;;;22.90;73.20;;;;;;4974501;28;20185;-71
2022/05/20 11:07:08;;;;;;;4.07;3.30;;;22.90;73.90;;;;;;5006108;28;20205;-71
2022/05/20 11:10:11;;;;;;;3.13;2.88;;;22.90;74.00;;;;;;4987162;28;20196;-71
2022/05/20 11:12:48;;;;;;;3.50;2.95;;;22.90;73.70;;;;;;4973206;28;20656;-71
2022/05/20 11:15:32;;;;;;;3.45;2.95;;;22.90;73.90;;;;;;4974780;28;20228;-71
2022/05/20 11:18:11;;;;;;;4.60;3.20;;;22.90;73.90;;;;;;4990223;28;20212;-70
2022/05/20 11:20:58;;;;;;;3.53;2.92;;;23.00;73.90;;;;;;4979074;28;20200;-71
2022/05/20 11:24:09;;;;;;;5.70;3.00;;;23.00;73.70;;;;;;4992640;28;20251;-71
2022/05/20 11:27:16;;;;;;;3.15;2.95;;;23.00;73.50;;;;;;5001515;28;20244;-71
2022/05/20 11:30:09;;;;;;;3.50;3.10;;;22.90;73.40;;;;;;4988367;28;20262;-71
2022/05/20 11:33:18;;;;;;;4.15;3.25;;;23.00;73.70;;;;;;4988504;28;20268;-71
2022/05/20 11:36:19;;;;;;;4.53;3.40;;;23.00;73.50;;;;;;4988900;28;20220;-71
2022/05/20 11:39:12;;;;;;;3.55;3.20;;;22.90;73.30;;;;;;4989620;28;20786;-72
2022/05/20 11:42:28;;;;;;;4.78;3.38;;;23.00;73.80;;;;;;4997145;28;20227;-71
2022/05/20 11:45:34;;;;;;;4.22;2.90;;;23.00;74.00;;;;;;4991305;28;20200;-71
2022/05/20 11:48:37;;;;;;;5.53;3.22;;;23.00;73.00;;;;;;4985633;28;20200;-71
2022/05/20 11:51:33;;;;;;;3.65;3.03;;;23.00;73.50;;;;;;4992994;28;20717;-71
2022/05/20 11:54:05;;;;;;;3.50;3.20;;;23.00;73.50;;;;;;4992508;28;20184;-70
2022/05/20 11:56:51;;;;;;;3.20;2.90;;;23.00;73.20;;;;;;4992361;28;20212;-71
2022/05/20 11:59:43;;;;;;;3.33;3.03;;;23.00;73.10;;;;;;4992076;28;20184;-70
2022/05/20 12:02:16;;;;;;;4.22;3.17;;;23.00;73.20;;;;;;5005873;28;20199;-70
2022/05/20 12:04:46;;;;;;;3.33;3.13;;;23.00;73.30;;;;;;4993215;28;20176;-71
2022/05/20 12:07:17;;;;;;;3.65;3.35;;;23.00;73.30;;;;;;5008795;28;20240;-71
2022/05/20 12:09:57;;;;;;;3.50;3.20;;;23.00;73.20;;;;;;4992353;28;20192;-72
2022/05/20 12:12:34;;;;;;;3.50;3.05;;;23.00;72.90;;;;;;4991880;28;20638;-71
2022/05/20 12:15:02;;;;;;;4.05;3.22;;;23.00;73.10;;;;;;4992108;28;20219;-71
2022/05/20 12:17:52;;;;;;;4.32;3.92;;;23.00;73.10;;;;;;4991907;28;20188;-70
2022/05/20 12:26:40;;;;;;;3.67;3.28;;;23.00;73.30;;;;;;5007882;28;20208;-71
2022/05/20 12:29:43;;;;;;;3.83;3.45;;;23.00;72.40;;;;;;4992040;28;20259;-72
2022/05/20 12:32:40;;;;;;;6.05;3.65;;;23.00;72.50;;;;;;4991448;28;20220;-71
2022/05/20 12:35:24;;;;;;;4.25;3.28;;;23.00;72.20;;;;;;5007810;28;20224;-71
2022/05/20 12:37:54;;;;;;;4.32;3.25;;;23.00;72.40;;;;;;5008211;28;20197;-71
2022/05/20 12:40:40;;;;;;;3.90;3.60;;;23.00;72.20;;;;;;4975211;28;20204;-71
2022/05/20 12:43:11;;;;;;;4.88;3.75;;;23.10;72.40;;;;;;4992664;28;20228;-71
2022/05/20 12:45:55;;;;;;;3.63;3.30;;;23.00;72.20;;;;;;4975297;28;20208;-71
2022/05/20 12:48:30;;;;;;;5.15;3.33;;;23.00;72.30;;;;;;4993817;28;20681;-71
2022/05/20 12:51:02;;;;;;;4.25;3.70;;;23.00;72.60;;;;;;4997465;28;20208;-70
2022/05/20 12:53:33;;;;;;;3.88;3.40;;;23.10;72.80;;;;;;4995497;28;20187;-71
2022/05/20 12:55:59;;;;;;;3.78;3.47;;;23.00;72.70;;;;;;4995760;28;20212;-71
2022/05/20 12:58:33;;;;;;;3.97;3.63;;;23.00;72.60;;;;;;5029081;28;20208;-70
2022/05/20 13:01:04;;;;;;;5.75;3.55;;;23.10;72.70;;;;;;5029006;28;20181;-71
2022/05/20 13:03:46;;;;;;;4.28;3.38;;;23.00;72.50;;;;;;5028425;28;20196;-70
2022/05/20 13:06:26;;;;;;;4.32;3.50;;;23.10;72.70;;;;;;4979092;28;20204;-70
2022/05/20 13:09:01;;;;;;;3.40;3.10;;;23.00;72.50;;;;;;4995721;28;20191;-70
2022/05/20 13:11:40;;;;;;;3.25;2.92;;;23.10;72.90;;;;;;5012160;28;20223;-70
2022/05/20 13:14:13;;;;;;;4.05;3.63;;;23.10;72.80;;;;;;5028402;28;20274;-71
2022/05/20 13:16:45;;;;;;;4.38;3.50;;;23.00;72.80;;;;;;5004531;28;20307;-71
2022/05/20 13:19:15;;;;;;;5.25;3.00;;;23.10;73.00;;;;;;4995186;28;20190;-71
2022/05/20 13:21:52;;;;;;;3.42;3.13;;;23.10;73.00;;;;;;5011733;28;20177;-71
2022/05/20 13:24:25;;;;;;;3.78;3.45;;;23.10;73.10;;;;;;4994923;28;20227;-70
2022/05/20 13:27:14;;;;;;;4.43;3.80;;;23.10;73.20;;;;;;5011554;28;20200;-70
2022/05/20 13:29:43;;;;;;;3.88;3.33;;;23.00;73.00;;;;;;4995621;28;20304;-70
2022/05/20 13:32:29;;;;;;;3.47;3.17;;;23.10;73.00;;;;;;4996494;28;20219;-70
2022/05/20 13:35:00;;;;;;;3.40;3.10;;;23.00;73.00;;;;;;4995101;28;20192;-70
2022/05/20 13:37:40;;;;;;;3.30;3.00;;;23.10;72.80;;;;;;5011330;28;20209;-71
2022/05/20 13:40:20;;;;;;;4.05;3.60;;;23.10;72.90;;;;;;5011125;28;20544;-71
2022/05/20 13:42:55;;;;;;;6.20;3.63;;;23.10;73.00;;;;;;5010728;28;20193;-71
2022/05/20 13:51:11;;;;;;;5.22;3.50;;;23.10;72.90;;;;;;4995160;28;20239;-70
2022/05/20 13:53:40;;;;;;;3.47;3.17;;;23.10;73.70;;;;;;5011781;28;20179;-71
2022/05/20 13:56:11;;;;;;;5.28;3.58;;;23.10;72.80;;;;;;5011491;28;20204;-72
2022/05/20 13:58:42;;;;;;;4.03;3.00;;;23.10;72.80;;;;;;4994435;28;20185;-72
2022/05/20 14:01:13;;;;;;;4.63;3.15;;;23.10;72.70;;;;;;4994567;28;20176;-71
2022/05/20 14:03:47;;;;;;;4.20;3.38;;;23.10;72.60;;;;;;5010748;28;20184;-70
2022/05/20 14:06:20;;;;;;;3.97;3.55;;;23.10;72.90;;;;;;4995723;28;20206;-70
2022/05/20 14:09:00;;;;;;;6.10;3.88;;;23.10;73.10;;;;;;5010880;28;20181;-70